Irece, Brazil
Current Conditions -  °F | °C
As of 7:00 PM on Monday 22 Dec 2014 (Local Time) from SBPL Reporting Station
Few Clouds Few Clouds  
Wind Chill: 84°   Ceiling: Unl
Heat Index: 87°   Visibility: 6mi
Dew Point: 68°   Wind: 5mph
Humidity: 58%   Direction: 180°S
Pressure: 29.88"   Gusts: NA
Location:  11.3°S, 41.87°W
Report Text: SBPL 222200Z 18004KT 9999 FEW023 29/20 Q1012
Loading
Personal Weather Stations






























Interactive Weather Map New forecast layout! Learn more

10-Day Weather Forecast

Advertisements
Track Severe Weather on mobile